Time;durP1;ratioP1;P1;durP2;ratioP2;P2;SDS_P1;SDS_P2;PMS_P1;PMS_P2;Temp;Humidity;BMP_temperature;BMP_pressure;BME280_temperature;BME280_humidity;BME280_pressure;Samples;Min_cycle;Max_cycle;Signal;HPM_P1;HPM_P2
2021/06/01 00:00:10;;;;;;;;;7.00;5.00;;;;;18.37;44.77;101226.41;5031102;28;46038;-77
2021/06/01 00:02:35;;;;;;;;;4.50;4.25;;;;;18.35;45.02;101227.47;5034037;28;45915;-77
2021/06/01 00:05:02;;;;;;;;;8.00;7.00;;;;;18.35;44.81;101227.47;5035957;28;45555;-77
2021/06/01 00:07:27;;;;;;;;;5.00;5.00;;;;;18.32;44.87;101236.50;5035367;28;45795;-77
2021/06/01 00:09:52;;;;;;;;;6.50;6.50;;;;;18.02;44.66;101198.69;5034242;28;46169;-78
2021/06/01 00:12:18;;;;;;;;;5.75;5.50;;;;;18.19;44.80;101219.69;5034697;28;45394;-77
2021/06/01 00:14:43;;;;;;;;;7.00;5.50;;;;;18.15;45.47;101218.19;5035112;28;45323;-77
2021/06/01 00:17:09;;;;;;;;;5.00;5.00;;;;;17.51;45.29;101110.78;5035142;28;45381;-76
2021/06/01 00:19:34;;;;;;;;;8.00;6.00;;;;;18.19;45.12;101235.66;5035133;28;46153;-77
2021/06/01 00:21:59;;;;;;;;;7.25;7.25;;;;;18.16;45.38;101228.72;5034639;28;45327;-77
2021/06/01 00:24:25;;;;;;;;;6.00;6.00;;;;;18.10;45.35;101229.13;5034307;28;45415;-77
2021/06/01 00:26:50;;;;;;;;;8.00;5.50;;;;;18.08;45.41;101223.06;5034733;28;45493;-77
2021/06/01 00:29:15;;;;;;;;;6.75;5.25;;;;;18.07;45.26;101221.38;5034567;28;46216;-77
2021/06/01 00:31:42;;;;;;;;;6.50;6.50;;;;;18.04;45.36;101218.91;5036619;28;45342;-77
2021/06/01 00:34:08;;;;;;;;;6.75;6.50;;;;;18.04;45.61;101223.38;5033185;28;45569;-77
2021/06/01 00:36:34;;;;;;;;;5.75;5.75;;;;;18.02;45.21;101219.97;5030048;28;47808;-77
2021/06/01 00:38:59;;;;;;;;;5.00;5.00;;;;;18.02;45.36;101219.97;5033963;28;45564;-77
2021/06/01 00:41:25;;;;;;;;;8.25;6.00;;;;;17.98;44.85;101227.28;5034198;28;45441;-77
2021/06/01 00:43:50;;;;;;;;;9.75;7.00;;;;;17.83;45.37;101207.03;5036672;28;45715;-77
2021/06/01 00:46:16;;;;;;;;;5.25;5.25;;;;;17.90;45.09;101218.94;5034649;28;45391;-77
2021/06/01 00:48:41;;;;;;;;;6.50;6.25;;;;;17.88;45.64;101213.75;5030817;28;46253;-78
2021/06/01 00:51:07;;;;;;;;;5.25;5.25;;;;;17.86;45.57;101212.16;5032109;28;45612;-77
2021/06/01 00:53:33;;;;;;;;;5.75;5.00;;;;;17.83;45.44;101213.19;5035118;28;45359;-77
2021/06/01 00:55:59;;;;;;;;;7.00;5.25;;;;;17.81;45.69;101212.44;5035003;28;45595;-77
2021/06/01 00:58:25;;;;;;;;;5.25;5.00;;;;;17.79;45.61;101214.34;5033167;28;46158;-77
2021/06/01 01:01:10;;;;;;;;;8.25;6.75;;;;;17.70;45.81;101202.47;5033847;28;45586;-77
2021/06/01 01:03:37;;;;;;;;;6.00;5.75;;;;;17.72;46.04;101213.88;5033310;28;45350;-77
2021/06/01 01:06:14;;;;;;;;;5.50;5.50;;;;;17.66;45.70;101200.13;5034063;28;46055;-77
2021/06/01 01:08:48;;;;;;;;;8.25;6.25;;;;;17.63;46.23;101198.50;5033939;28;45646;-77
2021/06/01 01:11:23;;;;;;;;;6.00;6.00;;;;;17.57;46.28;101203.38;5032500;28;45343;-77
2021/06/01 01:13:54;;;;;;;;;6.00;5.25;;;;;17.36;46.54;101182.53;5032809;28;45299;-77
2021/06/01 01:16:25;;;;;;;;;7.50;7.00;;;;;17.48;46.97;101196.84;5033549;28;45427;-77
2021/06/01 01:18:55;;;;;;;;;5.50;5.50;;;;;17.45;46.46;101195.25;5032436;28;46279;-77
2021/06/01 01:21:43;;;;;;;;;7.75;7.50;;;;;17.38;47.03;101199.25;5032446;28;45500;-77
2021/06/01 01:24:15;;;;;;;;;7.50;6.25;;;;;17.35;46.88;101193.28;5034251;28;45351;-77
2021/06/01 01:26:58;;;;;;;;;6.00;6.00;;;;;17.30;47.13;101195.38;5033664;28;45450;-76
2021/06/01 01:29:32;;;;;;;;;8.50;6.50;;;;;17.22;47.26;101186.06;5032493;28;46595;-76
2021/06/01 01:31:59;;;;;;;;;7.50;7.00;;;;;17.23;47.09;101186.94;5033607;28;45416;-77
2021/06/01 01:34:26;;;;;;;;;8.25;6.50;;;;;17.10;47.11;101180.69;5032304;28;45522;-77
2021/06/01 01:36:55;;;;;;;;;5.50;5.25;;;;;17.10;47.45;101180.69;5034213;28;45585;-77
2021/06/01 01:39:23;;;;;;;;;5.00;5.00;;;;;17.12;47.63;101195.59;5033414;28;46518;-77
2021/06/01 01:41:50;;;;;;;;;6.25;5.00;;;;;17.01;47.26;101175.97;5032820;28;45839;-77
2021/06/01 01:44:18;;;;;;;;;4.00;4.00;;;;;17.01;47.72;101176.81;5032805;28;45565;-77
2021/06/01 01:49:12;;;;;;;;;7.25;7.00;;;;;16.93;48.47;101181.75;5032598;28;45522;-77
2021/06/01 01:51:40;;;;;;;;;6.00;6.00;;;;;16.92;48.39;101175.59;5033950;28;45796;-77
2021/06/01 01:54:16;;;;;;;;;6.00;6.00;;;;;16.89;48.21;101178.44;5032008;28;45324;-77
2021/06/01 01:56:50;;;;;;;;;5.25;4.00;;;;;16.84;48.55;101172.56;5033466;28;45632;-77
2021/06/01 01:59:36;;;;;;;;;5.00;5.00;;;;;16.73;48.75;101156.44;5033136;28;46118;-77
2021/06/01 02:02:03;;;;;;;;;7.25;4.50;;;;;16.73;49.06;101171.53;5031556;28;45985;-77
2021/06/01 02:04:30;;;;;;;;;5.75;5.75;;;;;16.70;48.46;101167.22;5035006;28;45416;-77
2021/06/01 02:06:58;;;;;;;;;9.25;7.25;;;;;16.71;48.82;101171.63;5033456;28;46670;-77
2021/06/01 02:09:23;;;;;;;;;6.25;5.25;;;;;16.67;49.05;101173.56;5031295;28;47158;-77
2021/06/01 02:11:49;;;;;;;;;9.50;5.25;;;;;16.64;48.81;101165.78;5033612;28;45472;-76
2021/06/01 02:14:19;;;;;;;;;6.00;5.75;;;;;16.60;48.63;101161.63;5033892;28;45595;-77
2021/06/01 02:16:44;;;;;;;;;7.00;6.50;;;;;16.57;49.15;101160.97;5035321;28;45400;-77
2021/06/01 02:19:13;;;;;;;;;6.50;6.00;;;;;16.56;49.15;101161.91;5032127;28;46547;-77
2021/06/01 02:23:47;;;;;;;;;5.00;5.00;;;;;16.53;49.05;101165.59;5032340;28;45528;-77
2021/06/01 02:25:14;;;;;;;;;7.00;5.25;;;;;16.49;48.64;101164.06;5028623;28;45687;-76
2021/06/01 02:28:01;;;;;;;;;4.75;4.75;;;;;16.45;49.17;101162.56;5033390;28;45585;-77
2021/06/01 02:30:48;;;;;;;;;7.00;5.75;;;;;16.39;49.39;101158.50;5031496;28;45596;-77
2021/06/01 02:33:17;;;;;;;;;4.00;4.00;;;;;16.32;49.53;101149.19;5032820;28;45409;-76
2021/06/01 02:35:43;;;;;;;;;6.50;5.00;;;;;16.38;49.61;101162.06;5033139;28;45477;-77
2021/06/01 02:38:10;;;;;;;;;9.75;5.00;;;;;16.36;49.65;101152.50;5033141;28;45370;-76
2021/06/01 02:40:37;;;;;;;;;5.00;5.00;;;;;16.17;49.59;101129.75;5034811;28;45493;-77
2021/06/01 02:43:06;;;;;;;;;7.00;5.50;;;;;16.28;49.68;101150.31;5033149;28;45669;-77
2021/06/01 02:45:36;;;;;;;;;5.00;4.50;;;;;16.31;49.78;101150.13;5032699;28;45379;-77
2021/06/01 02:48:02;;;;;;;;;8.25;7.00;;;;;16.30;49.64;101147.59;5032234;28;45622;-77
2021/06/01 02:50:29;;;;;;;;;8.50;7.00;;;;;16.29;49.69;101154.69;5029846;28;47200;-77
2021/06/01 02:52:56;;;;;;;;;5.25;5.25;;;;;16.26;49.34;101144.25;5033829;28;45386;-77
2021/06/01 02:55:22;;;;;;;;;7.00;5.25;;;;;16.28;49.91;101149.44;5033419;28;45503;-77
2021/06/01 02:57:48;;;;;;;;;8.00;5.75;;;;;16.27;49.60;101148.59;5037192;28;45383;-77
2021/06/01 03:00:17;;;;;;;;;7.75;6.00;;;;;16.26;50.03;101148.72;5032146;28;46133;-77
2021/06/01 03:02:42;;;;;;;;;6.25;6.00;;;;;16.23;49.88;101140.91;5030830;28;45596;-77
2021/06/01 03:05:09;;;;;;;;;6.00;6.00;;;;;16.15;50.02;101130.78;5031947;28;46657;-78
2021/06/01 03:07:37;;;;;;;;;8.25;7.00;;;;;16.18;49.94;101149.16;5034729;28;45485;-78
2021/06/01 03:10:05;;;;;;;;;8.00;7.00;;;;;16.10;49.77;101138.16;5030937;28;45431;-78
2021/06/01 03:14:56;;;;;;;;;4.75;4.00;;;;;16.10;49.92;101139.00;5030338;28;45724;-77
2021/06/01 03:17:21;;;;;;;;;7.00;7.00;;;;;16.06;49.98;101131.31;5032247;28;45336;-77
2021/06/01 03:19:46;;;;;;;;;6.00;5.00;;;;;16.03;50.18;101128.88;5033445;28;47497;-77
2021/06/01 03:22:12;;;;;;;;;4.00;4.00;;;;;15.97;50.44;101126.56;5029796;28;45672;-78
2021/06/01 03:24:37;;;;;;;;;7.00;4.75;;;;;15.98;50.51;101138.91;5032049;28;45381;-77
2021/06/01 03:27:03;;;;;;;;;6.75;6.00;;;;;15.95;50.56;101129.31;5031933;28;45402;-77
2021/06/01 03:29:28;;;;;;;;;7.25;5.75;;;;;15.90;50.65;101126.94;5030895;28;47012;-77
2021/06/01 03:31:54;;;;;;;;;5.75;5.50;;;;;15.88;50.40;101130.63;5033874;28;45393;-77
2021/06/01 03:34:19;;;;;;;;;7.00;7.00;;;;;15.86;50.38;101130.69;5032619;28;45684;-77
2021/06/01 03:36:44;;;;;;;;;8.00;6.25;;;;;15.82;50.37;101131.00;5033230;28;45520;-77
2021/06/01 03:39:10;;;;;;;;;6.50;5.75;;;;;15.74;50.98;101123.47;5031856;28;47408;-77
2021/06/01 03:41:36;;;;;;;;;5.25;5.25;;;;;15.75;50.87;101121.69;5035429;28;45375;-78
2021/06/01 03:44:03;;;;;;;;;7.00;6.00;;;;;15.56;50.23;101095.38;5036048;28;45387;-77
2021/06/01 03:46:28;;;;;;;;;5.00;5.00;;;;;15.72;50.80;101124.53;5036772;28;45417;-77
2021/06/01 03:48:54;;;;;;;;;6.00;5.50;;;;;15.62;51.26;101113.56;5031554;28;45894;-77
2021/06/01 03:51:19;;;;;;;;;4.50;4.50;;;;;15.35;51.02;101081.59;5032542;28;45482;-77
2021/06/01 03:53:44;;;;;;;;;6.00;5.25;;;;;15.67;51.26;101126.59;5034753;28;45513;-77
2021/06/01 03:56:10;;;;;;;;;5.75;5.50;;;;;15.69;51.14;101125.53;5034655;28;45730;-77
2021/06/01 03:58:35;;;;;;;;;6.75;6.50;;;;;15.59;50.62;101117.22;5036802;28;45508;-77
2021/06/01 04:01:00;;;;;;;;;5.50;5.50;;;;;15.66;51.39;101123.09;5033528;28;45441;-77
2021/06/01 04:03:26;;;;;;;;;5.00;5.00;;;;;15.65;51.07;101126.66;5035826;28;45308;-77
2021/06/01 04:05:51;;;;;;;;;8.25;8.00;;;;;15.67;51.34;101129.25;5034891;28;45422;-77
2021/06/01 04:08:17;;;;;;;;;9.00;5.50;;;;;15.60;51.07;101121.59;5034492;28;58669;-77
2021/06/01 04:10:42;;;;;;;;;7.25;5.75;;;;;15.62;51.30;101121.53;5037527;28;45350;-77
2021/06/01 04:13:07;;;;;;;;;5.00;5.00;;;;;15.63;51.10;101126.75;5035146;28;47853;-76
2021/06/01 04:15:33;;;;;;;;;7.50;6.00;;;;;15.63;50.87;101128.56;5033010;28;49633;-77
2021/06/01 04:17:58;;;;;;;;;9.00;6.00;;;;;15.68;51.01;101142.38;5034552;28;45577;-77
2021/06/01 04:20:24;;;;;;;;;8.75;6.75;;;;;15.68;51.26;101133.59;5032778;28;45312;-77
2021/06/01 04:22:50;;;;;;;;;7.25;7.25;;;;;15.62;51.33;101121.53;5037353;28;45324;-77
2021/06/01 04:25:16;;;;;;;;;5.75;4.75;;;;;15.60;51.05;101126.03;5035337;28;45427;-77
2021/06/01 04:27:41;;;;;;;;;5.75;5.25;;;;;15.56;51.39;101103.34;5033045;28;46967;-77
2021/06/01 04:30:07;;;;;;;;;5.00;5.00;;;;;15.71;50.98;101123.66;5035109;28;45407;-77
2021/06/01 04:32:33;;;;;;;;;7.00;7.00;;;;;15.74;51.03;101131.44;5035291;28;45375;-77
2021/06/01 04:34:58;;;;;;;;;11.25;10.25;;;;;15.71;50.91;101114.84;5035791;28;45490;-77
2021/06/01 04:37:23;;;;;;;;;6.50;6.00;;;;;15.78;51.09;101124.16;5036054;28;45468;-77
2021/06/01 04:39:49;;;;;;;;;7.75;7.00;;;;;15.75;51.33;101119.88;5033751;28;45521;-77
2021/06/01 04:42:15;;;;;;;;;7.00;7.00;;;;;15.79;51.21;101125.88;5033280;28;45461;-77
2021/06/01 04:44:40;;;;;;;;;8.25;6.25;;;;;15.81;51.04;101124.81;5032962;28;45427;-77
2021/06/01 04:47:06;;;;;;;;;7.75;6.00;;;;;15.84;51.32;101122.00;5034563;28;46283;-77
2021/06/01 04:49:31;;;;;;;;;5.50;5.25;;;;;15.85;51.32;101121.03;5034496;28;45433;-77
2021/06/01 04:51:57;;;;;;;;;9.00;7.00;;;;;15.87;50.85;101115.69;5034906;28;45470;-77
2021/06/01 04:54:22;;;;;;;;;10.25;8.25;;;;;15.83;51.03;101106.19;5034598;28;45625;-77
2021/06/01 04:56:47;;;;;;;;;10.25;6.25;;;;;15.89;51.14;101116.44;5034757;28;45426;-77
2021/06/01 04:59:13;;;;;;;;;6.75;6.75;;;;;15.89;51.06;101117.28;5033671;28;45595;-77
2021/06/01 05:01:38;;;;;;;;;6.50;6.00;;;;;15.70;51.21;101076.03;5035763;28;45390;-77
2021/06/01 05:04:04;;;;;;;;;6.50;6.50;;;;;16.02;51.35;101114.75;5035140;28;45533;-78
2021/06/01 05:06:29;;;;;;;;;8.00;6.00;;;;;15.98;51.19;101107.09;5033290;28;46015;-77
2021/06/01 05:08:55;;;;;;;;;6.25;6.25;;;;;16.11;51.31;101119.50;5034144;28;47588;-77
2021/06/01 05:11:21;;;;;;;;;7.50;7.50;;;;;16.16;51.25;101109.47;5026166;28;45607;-77
2021/06/01 05:13:46;;;;;;;;;16.25;12.25;;;;;16.18;50.86;101101.41;5036862;28;45519;-77
2021/06/01 05:16:13;;;;;;;;;49.75;40.75;;;;;16.27;50.89;101102.66;5032743;28;45439;-77
2021/06/01 05:18:38;;;;;;;;;63.75;48.00;;;;;16.35;51.05;101109.22;5034231;28;45453;-77
2021/06/01 05:21:07;;;;;;;;;53.67;42.67;;;;;16.37;50.39;101091.41;5033281;28;49192;-77
2021/06/01 05:23:33;;;;;;;;;43.00;35.00;;;;;16.39;50.80;101086.88;5035273;28;45557;-77
2021/06/01 05:25:58;;;;;;;;;32.50;26.00;;;;;16.53;50.51;101091.31;5034002;28;46077;-77
2021/06/01 05:28:24;;;;;;;;;14.00;11.00;;;;;16.60;49.99;101091.78;5034964;28;45343;-77
2021/06/01 05:33:35;;;;;;;;;12.00;10.00;;;;;16.67;50.22;101098.41;5029429;28;45300;-77
2021/06/01 05:36:01;;;;;;;;;7.75;6.25;;;;;16.75;50.08;101098.81;5033829;28;45522;-76
2021/06/01 05:38:29;;;;;;;;;9.50;7.50;;;;;16.87;49.79;101097.19;5032734;28;45423;-77
2021/06/01 05:40:55;;;;;;;;;9.50;7.00;;;;;16.97;49.74;101094.81;5034251;28;45533;-77
2021/06/01 05:43:21;;;;;;;;;8.25;8.00;;;;;17.24;49.22;101100.16;5035435;28;45311;-77
2021/06/01 05:45:47;;;;;;;;;8.00;7.00;;;;;17.53;49.28;101100.88;5030308;28;46162;-77
2021/06/01 05:48:13;;;;;;;;;9.50;8.00;;;;;17.83;48.57;101085.56;5033646;28;45406;-77
2021/06/01 05:50:40;;;;;;;;;8.00;7.00;;;;;18.14;48.03;101078.16;5033568;28;45773;-77
2021/06/01 05:53:06;;;;;;;;;9.00;8.00;;;;;18.46;47.53;101087.41;5033501;28;45603;-77
2021/06/01 05:55:32;;;;;;;;;8.75;8.75;;;;;18.69;47.54;101090.28;5033897;28;46855;-77
2021/06/01 05:57:57;;;;;;;;;6.75;6.75;;;;;18.81;46.90;101077.91;5033865;28;45434;-77
2021/06/01 06:00:24;;;;;;;;;9.00;8.00;;;;;18.95;46.42;101093.72;5032794;28;45382;-77
2021/06/01 06:02:49;;;;;;;;;9.00;7.50;;;;;18.90;46.50;101080.75;5032084;28;45502;-77
2021/06/01 06:05:15;;;;;;;;;8.50;8.00;;;;;18.89;46.35;101086.19;5032790;28;46213;-77
2021/06/01 06:07:40;;;;;;;;;8.50;6.75;;;;;18.91;46.11;101087.78;5034767;28;45464;-77
2021/06/01 06:10:07;;;;;;;;;10.00;9.00;;;;;18.93;45.86;101083.19;5033138;28;45521;-77
2021/06/01 06:12:34;;;;;;;;;7.25;7.25;;;;;18.91;45.96;101074.47;5035347;28;45498;-77
2021/06/01 06:14:59;;;;;;;;;9.00;7.75;;;;;18.97;46.45;101075.84;5037953;28;46208;-76
2021/06/01 06:17:31;;;;;;;;;6.25;6.25;;;;;19.02;46.08;101093.19;5040521;28;45405;-76
2021/06/01 06:20:04;;;;;;;;;7.50;7.50;;;;;18.99;46.06;101082.75;5033204;28;45384;-75
2021/06/01 06:22:29;;;;;;;;;9.50;8.00;;;;;18.96;45.57;101082.13;5031920;28;45355;-78
2021/06/01 06:24:54;;;;;;;;;7.50;6.50;;;;;18.97;45.91;101083.81;5031990;28;45495;-75
2021/06/01 06:27:20;;;;;;;;;9.00;8.00;;;;;19.00;46.32;101084.47;5031954;28;45414;-75
2021/06/01 06:29:45;;;;;;;;;5.50;5.50;;;;;19.07;46.24;101084.00;5032079;28;45537;-77
2021/06/01 06:32:11;;;;;;;;;8.50;8.00;;;;;19.04;45.94;101071.75;5033925;28;45448;-75
2021/06/01 06:34:36;;;;;;;;;7.25;7.25;;;;;19.19;45.79;101080.44;5033980;28;46007;-77
2021/06/01 06:37:02;;;;;;;;;6.50;6.50;;;;;19.14;45.85;101067.44;5029049;28;45974;-77
2021/06/01 06:39:27;;;;;;;;;7.50;7.00;;;;;18.95;45.60;101029.81;5028374;28;45698;-77
2021/06/01 06:41:53;;;;;;;;;8.75;8.75;;;;;19.26;45.84;101071.00;5033770;28;45557;-77
2021/06/01 06:44:19;;;;;;;;;10.00;9.75;;;;;19.22;45.88;101054.44;5037181;28;45376;-76
2021/06/01 06:46:52;;;;;;;;;6.25;6.25;;;;;19.29;45.67;101065.47;5036091;28;45359;-76
2021/06/01 06:49:17;;;;;;;;;11.00;6.00;;;;;18.85;45.61;100979.06;5028482;28;45360;-77
2021/06/01 06:51:43;;;;;;;;;8.75;7.75;;;;;19.42;45.60;101084.94;5033627;28;45554;-77
2021/06/01 06:54:08;;;;;;;;;8.75;8.75;;;;;19.36;45.49;101052.53;5027372;28;46120;-78
2021/06/01 06:56:33;;;;;;;;;11.25;8.50;;;;;19.55;45.72;101069.69;5030293;28;45375;-78
2021/06/01 06:59:00;;;;;;;;;11.00;8.00;;;;;19.64;45.56;101070.88;5024005;28;45639;-77
2021/06/01 07:01:29;;;;;;;;;11.00;7.25;;;;;19.73;45.39;101070.19;5032538;28;45511;-78
2021/06/01 07:03:55;;;;;;;;;9.00;7.75;;;;;19.82;45.68;101073.94;5032075;28;46148;-77
2021/06/01 07:06:23;;;;;;;;;6.25;6.25;;;;;19.91;45.03;101065.25;5035794;28;45784;-76
2021/06/01 07:08:49;;;;;;;;;8.25;8.25;;;;;19.98;44.68;101053.13;5033231;28;45567;-77
2021/06/01 07:11:14;;;;;;;;;9.00;7.00;;;;;20.19;45.02;101068.44;5031942;28;45370;-77
2021/06/01 07:13:40;;;;;;;;;6.75;6.75;;;;;20.30;45.19;101060.44;5036062;28;46088;-77
2021/06/01 07:16:05;;;;;;;;;7.33;6.00;;;;;20.54;44.81;101074.56;5032828;28;45581;-77
2021/06/01 07:18:34;;;;;;;;;9.50;6.75;;;;;20.67;44.62;101063.72;5028649;28;45529;-76
2021/06/01 07:21:01;;;;;;;;;12.25;9.00;;;;;20.70;43.93;101063.50;5030689;28;45516;-76
2021/06/01 07:23:27;;;;;;;;;6.75;6.75;;;;;20.76;44.47;101056.81;5029258;28;45496;-76
2021/06/01 07:25:52;;;;;;;;;8.25;6.25;;;;;20.83;43.77;101048.19;5038631;28;45682;-76
2021/06/01 07:28:17;;;;;;;;;4.50;4.50;;;;;20.90;43.87;101048.53;5035007;28;45674;-76
2021/06/01 07:30:43;;;;;;;;;6.00;5.75;;;;;21.05;43.61;101052.63;5035577;28;45534;-75
2021/06/01 07:33:08;;;;;;;;;5.75;5.75;;;;;21.08;43.88;101030.13;5031804;28;46069;-76
2021/06/01 07:35:33;;;;;;;;;5.00;4.75;;;;;21.33;43.16;101027.16;5032263;28;45439;-77
2021/06/01 07:37:59;;;;;;;;;6.00;6.00;;;;;21.52;43.46;101039.84;5032184;28;45408;-77
2021/06/01 07:40:25;;;;;;;;;8.25;6.00;;;;;21.72;43.51;101035.50;5029507;28;45592;-77
2021/06/01 07:42:51;;;;;;;;;7.00;6.00;;;;;21.96;42.64;101029.84;5030839;28;45466;-76
2021/06/01 07:45:16;;;;;;;;;7.75;6.50;;;;;22.22;42.26;101040.16;5028716;28;45802;-79
2021/06/01 07:47:42;;;;;;;;;62.75;47.50;;;;;22.54;41.84;101038.16;5030001;28;45458;-76
2021/06/01 07:50:09;;;;;;;;;10.00;7.75;;;;;22.90;41.87;101033.22;5030816;28;45454;-78
2021/06/01 07:52:34;;;;;;;;;8.75;6.00;;;;;23.33;41.83;101023.94;5031920;28;45990;-78
2021/06/01 07:55:00;;;;;;;;;11.00;6.00;;;;;23.96;41.22;101021.63;5031517;28;45462;-77
2021/06/01 07:57:25;;;;;;;;;6.75;6.75;;;;;24.94;40.56;101036.31;5030415;28;45445;-76
2021/06/01 07:59:50;;;;;;;;;6.50;6.25;;;;;26.39;39.39;101016.13;5028161;28;45456;-77
2021/06/01 08:02:16;;;;;;;;;6.75;6.00;;;;;28.59;37.34;101031.53;5030973;28;46090;-76
2021/06/01 08:04:41;;;;;;;;;8.50;6.75;;;;;30.95;34.28;101024.97;5031992;28;45863;-76
2021/06/01 08:07:08;;;;;;;;;7.50;7.00;;;;;33.28;31.87;101018.09;5030375;28;45430;-78
2021/06/01 08:09:33;;;;;;;;;6.00;4.25;;;;;33.96;30.00;101018.75;5031283;28;45514;-78
2021/06/01 08:11:59;;;;;;;;;6.25;5.25;;;;;33.64;29.14;101012.28;5036769;28;45636;-77
2021/06/01 08:14:24;;;;;;;;;5.00;4.00;;;;;33.11;28.42;101006.78;5034436;28;45604;-78
2021/06/01 08:16:50;;;;;;;;;5.50;5.00;;;;;33.48;28.42;101015.44;5036664;28;45283;-78
2021/06/01 08:19:19;;;;;;;;;7.00;5.00;;;;;34.97;28.71;101000.97;5031660;28;45604;-77
2021/06/01 08:24:19;;;;;;;;;8.50;7.00;;;;;39.71;24.70;100990.16;5031739;28;45473;-77
2021/06/01 08:26:44;;;;;;;;;6.50;6.00;;;;;41.63;23.37;100998.91;5034040;28;45481;-77
2021/06/01 08:29:10;;;;;;;;;7.50;7.50;;;;;43.22;21.44;100983.72;5034451;28;45394;-77
2021/06/01 08:31:36;;;;;;;;;13.00;8.25;;;;;44.72;20.75;100994.88;5034361;28;47042;-78
2021/06/01 08:34:01;;;;;;;;;6.00;6.00;;;;;45.00;19.15;100990.53;5033099;28;45534;-78
2021/06/01 08:36:27;;;;;;;;;4.75;4.25;;;;;44.00;19.44;100994.38;5034629;28;45487;-78
2021/06/01 08:38:54;;;;;;;;;6.75;6.75;;;;;44.47;18.50;100990.31;5038180;28;45461;-78
2021/06/01 08:41:19;;;;;;;;;6.50;6.50;;;;;45.78;18.82;101000.66;5034924;28;46152;-78
2021/06/01 08:43:47;;;;;;;;;9.00;4.75;;;;;47.32;16.79;101002.94;5035061;28;45710;-77
2021/06/01 08:46:13;;;;;;;;;7.00;5.00;;;;;48.58;16.38;101007.06;5027992;28;45905;-78
2021/06/01 08:48:39;;;;;;;;;7.50;6.00;;;;;49.93;15.20;101003.34;5033993;28;45340;-77
2021/06/01 08:51:08;;;;;;;;;6.00;5.00;;;;;50.89;15.02;101007.94;5023546;28;46410;-78
2021/06/01 08:53:34;;;;;;;;;5.25;5.25;;;;;51.38;14.12;100988.91;5032791;28;45565;-78
2021/06/01 08:55:59;;;;;;;;;4.75;4.50;;;;;51.98;13.77;100995.41;5035567;28;45488;-78
2021/06/01 08:58:25;;;;;;;;;5.00;4.50;;;;;52.78;12.98;101003.72;5027048;28;45486;-78
2021/06/01 09:00:50;;;;;;;;;6.25;5.00;;;;;53.60;12.39;101003.88;5024406;28;46973;-78
2021/06/01 09:03:20;;;;;;;;;5.00;5.00;;;;;54.35;12.42;101000.63;5030596;28;45443;-78
2021/06/01 09:06:30;;;;;;;;;5.75;5.75;;;;;54.88;11.59;100998.63;5032750;28;45530;-78
2021/06/01 09:22:00;;;;;;;;;5.25;5.25;;;;;56.96;9.92;101000.34;5030401;28;45415;-78
2021/06/01 09:24:26;;;;;;;;;16.75;16.75;;;;;56.45;9.94;100980.75;5030525;28;46831;-78
2021/06/01 09:29:49;;;;;;;;;5.25;5.25;;;;;54.35;10.19;100995.88;5020193;28;45484;-78
2021/06/01 09:32:16;;;;;;;;;4.00;4.00;;;;;53.24;10.71;100985.78;5027434;28;46100;-77
2021/06/01 09:34:46;;;;;;;;;7.00;5.75;;;;;52.22;11.26;100981.59;5030452;28;45521;-77
2021/06/01 09:37:18;;;;;;;;;6.75;5.00;;;;;50.27;12.03;100978.28;5031570;28;45616;-78
2021/06/01 09:39:44;;;;;;;;;5.00;5.00;;;;;48.92;12.39;100969.47;5037267;28;45605;-77
2021/06/01 09:42:43;;;;;;;;;5.50;5.50;;;;;47.72;13.11;100958.75;5021592;28;46378;-78
2021/06/01 09:45:16;;;;;;;;;7.00;7.00;;;;;46.71;13.33;100956.63;5021274;28;45414;-78
2021/06/01 09:48:07;;;;;;;;;6.00;5.00;;;;;45.89;14.22;100955.00;5030421;28;45549;-80
2021/06/01 09:50:53;;;;;;;;;5.00;5.00;;;;;45.02;15.23;100953.09;5019498;28;45403;-77
2021/06/01 09:55:47;;;;;;;;;6.25;6.25;;;;;43.61;16.17;100963.75;5032811;28;47048;-78
2021/06/01 09:58:34;;;;;;;;;5.00;5.00;;;;;43.01;16.49;100955.22;5021781;28;45550;-77
2021/06/01 10:01:02;;;;;;;;;5.00;5.00;;;;;42.26;16.25;100951.22;5025973;28;45367;-79
2021/06/01 10:03:37;;;;;;;;;7.75;5.00;;;;;41.71;16.04;100958.91;5025112;28;46193;-79
2021/06/01 10:06:04;;;;;;;;;5.50;5.50;;;;;41.02;16.95;100954.28;5024227;28;45489;-79
2021/06/01 10:08:30;;;;;;;;;4.50;4.50;;;;;40.43;17.21;100957.81;5029166;28;45524;-78
2021/06/01 10:11:00;;;;;;;;;5.75;5.25;;;;;39.90;17.35;100953.84;5032830;28;45435;-78
2021/06/01 10:13:32;;;;;;;;;5.00;4.50;;;;;39.37;18.02;100949.75;5041658;28;46986;-77
2021/06/01 10:16:00;;;;;;;;;5.25;5.25;;;;;39.03;18.11;100948.06;5026501;28;45627;-78
2021/06/01 10:18:30;;;;;;;;;5.00;5.00;;;;;38.67;18.46;100943.84;5018472;28;45383;-78
2021/06/01 10:20:58;;;;;;;;;5.50;4.75;;;;;38.40;18.58;100938.94;5019444;28;46952;-77
2021/06/01 10:23:35;;;;;;;;;7.50;5.00;;;;;37.99;18.74;100926.28;5020129;28;46983;-75
2021/06/01 10:26:02;;;;;;;;;5.75;4.75;;;;;37.71;19.60;100916.91;5034647;28;45842;-75
2021/06/01 10:28:35;;;;;;;;;3.50;3.50;;;;;37.43;19.72;100925.84;5017785;28;45637;-78
2021/06/01 10:31:05;;;;;;;;;4.75;4.75;;;;;37.08;19.95;100928.56;5024121;28;45450;-77
2021/06/01 10:34:03;;;;;;;;;2.25;2.25;;;;;36.83;19.71;100920.50;5029039;28;45375;-74
2021/06/01 10:52:20;;;;;;;;;6.00;5.25;;;;;35.11;21.43;100897.91;5030672;28;45406;-76
2021/06/01 10:54:47;;;;;;;;;8.50;5.75;;;;;34.87;21.42;100900.38;5030847;28;46333;-75
2021/06/01 10:57:15;;;;;;;;;5.75;5.75;;;;;34.61;22.28;100897.81;5028530;28;45391;-75
2021/06/01 10:59:47;;;;;;;;;6.25;5.00;;;;;34.40;22.64;100894.34;5030669;28;45522;-76
2021/06/01 11:02:13;;;;;;;;;5.50;4.50;;;;;34.15;22.28;100890.75;5024735;28;45427;-75
2021/06/01 11:05:11;;;;;;;;;5.00;5.00;;;;;34.05;22.74;100895.81;5029973;28;45886;-75
2021/06/01 11:07:51;;;;;;;;;5.00;5.00;;;;;33.96;23.37;100889.75;5018830;28;46205;-75
2021/06/01 11:10:38;;;;;;;;;5.00;5.00;;;;;33.89;23.13;100894.38;5025485;28;45748;-76
2021/06/01 11:13:08;;;;;;;;;5.00;5.00;;;;;33.76;23.14;100901.53;5026113;28;45453;-75
2021/06/01 11:15:36;;;;;;;;;4.50;4.25;;;;;33.60;23.26;100890.25;5021249;28;46286;-75
2021/06/01 11:18:19;;;;;;;;;5.00;4.75;;;;;33.65;23.29;100883.13;5028801;28;45498;-75
2021/06/01 11:21:08;;;;;;;;;6.50;5.00;;;;;33.68;23.49;100881.88;5032759;28;45710;-75
2021/06/01 11:35:29;;;;;;;;;15.50;13.00;;;;;33.02;24.03;100869.16;5016496;28;45831;-75
2021/06/01 11:41:03;;;;;;;;;5.00;5.00;;;;;32.75;24.41;100865.56;5032647;28;45885;-76
2021/06/01 11:43:22;;;;;;;;;6.25;4.75;;;;;32.72;24.24;100863.25;5024882;28;45634;-75
2021/06/01 11:50:57;;;;;;;;;6.00;6.00;;;;;32.53;24.54;100853.19;5029615;28;46141;-77
2021/06/01 11:51:21;;;;;;;;;8.00;7.00;;;;;32.55;24.14;100856.53;5026656;28;45530;-76
2021/06/01 11:54:15;;;;;;;;;5.00;3.75;;;;;32.66;24.49;100843.16;5030902;28;45387;-76
2021/06/01 12:02:07;;;;;;;;;4.00;4.00;;;;;32.62;24.47;100843.75;5033704;28;45347;-76
2021/06/01 12:18:21;;;;;;;;;3.50;3.50;;;;;31.52;25.35;100844.81;5029442;28;45468;-76
2021/06/01 12:20:46;;;;;;;;;6.00;6.00;;;;;31.56;25.46;100846.09;5021718;28;45462;-77
2021/06/01 12:23:31;;;;;;;;;4.50;4.50;;;;;31.59;25.45;100841.09;5025558;28;45517;-77
2021/06/01 12:32:08;;;;;;;;;5.00;5.00;;;;;31.80;25.87;100842.03;5032306;28;45594;-76
2021/06/01 13:20:46;;;;;;;;;4.25;4.25;;;;;31.24;26.57;100814.97;4935676;28;45304;-77
2021/06/01 13:39:52;;;;;;;;;6.50;3.00;;;;;31.00;27.07;100797.25;4909664;28;45524;-75
2021/06/01 13:48:09;;;;;;;;;4.00;4.00;;;;;30.84;27.04;100785.66;4948086;28;45695;-76
2021/06/01 13:51:03;;;;;;;;;4.50;4.50;;;;;30.76;27.36;100774.13;4950005;28;45676;-76
2021/06/01 13:56:07;;;;;;;;;7.75;4.75;;;;;30.79;27.22;100782.69;4939377;28;45381;-77
2021/06/01 14:10:10;;;;;;;;;3.00;3.00;;;;;30.81;27.55;100775.22;5032323;28;45533;-78
2021/06/01 15:10:21;;;;;;;;;4.75;4.75;;;;;29.83;29.46;100748.78;5032371;28;45390;-74
2021/06/01 15:24:32;;;;;;;;;5.50;5.50;;;;;29.83;30.31;100730.66;5032731;28;45845;-76
2021/06/01 15:29:59;;;;;;;;;8.75;7.25;;;;;29.66;30.32;100726.50;5020596;28;47666;-75
2021/06/01 15:32:55;;;;;;;;;10.75;7.25;;;;;29.64;30.25;100726.66;5032456;28;45822;-76